METAR AND TAF INFORMATION
METAR FOR LEXJ
ADDS - METARS form results

(0148 UTC 06 August 2020)
Data provider http://aviationweather.gov/metar/data/
 
METAR text: LEXJ 060130Z AUTO 00000KT 7000 NCD 17/15 Q1014
Conditions at: LEXJ (SANTANDER/PARAYA, ES) observed 0130 UTC 06 August 2020
Temperature: 17.0°C (63°F)
Dewpoint: 15.0°C (59°F) [RH = 88%]
Pressure (altimeter): 29.94 inches Hg (1014.0 mb)
Winds: calm
Visibility: 4 miles ( 7 km)
Ceiling: at least 12,000 feet AGL
Clouds: sky clear below 12,000 feet AGL
Weather: no significant weather observed at this time

METAR text: LEXJ 060100Z AUTO 00000KT 8000 NCD 18/16 Q1015
Conditions at: LEXJ (SANTANDER/PARAYA, ES) observed 0100 UTC 06 August 2020
Temperature: 18.0°C (64°F)
Dewpoint: 16.0°C (61°F) [RH = 88%]
Pressure (altimeter): 29.97 inches Hg (1015.0 mb)
Winds: calm
Visibility: 5 miles ( 8 km)
Ceiling: at least 12,000 feet AGL
Clouds: sky clear below 12,000 feet AGL
Weather: no significant weather observed at this time

Forecast for: LEXJ (SANTANDER/PARAYA, ES)
Text: TAF LEXJ 052000Z 0521/0621 10005KT CAVOK TX28/0614Z TN14/0605Z
Forecast period: 2100 UTC 05 August 2020 to 2100 UTC 06 August 2020
Forecast type: FROM: standard forecast or significant change
Winds: from the E (100 degrees) at 6 MPH (5 knots; 2.6 m/s)
Visibility: 6 or more miles (10+ km)
Ceiling: unknown
Clouds: missing
Weather: no significant weather forecast for this period
Text: PROB30
Forecast period: 0300 to 0900 UTC 06 August 2020
Forecast type: TEMPORARY: The following changes expected for less than half the time period
Visibility: 1.86 miles (2.99 km)
Ceiling: 1000 feet AGL
Clouds: broken clouds at 1000 feet AGL
Weather: BR  (mist)
Text: TEMPO 0603/0609 3000 BR BKN010
Forecast period: 1000 to 2000 UTC 06 August 2020
Forecast type: TEMPORARY: The following changes expected for less than half the time period
Winds: from the NE (40 degrees) at 12 MPH (10 knots; 5.1 m/s)
Visibility: missing
Ceiling: unknown
Clouds: missing
Weather: no significant weather forecast for this period

 AIRPORT MAP

 RUNWAY INFORMATION
Runway 11 Runway length 7612 ft Runway width 148 ft
Runway elevation 11 ft Runway displaced threshold 0 ft Runway heading 110
Runway 29 Runway length 7612 ft Runway width 148 ft
Runway elevation 12 ft Runway displaced threshold 0 ft Runway heading 290

 AIRPORT FREQUENCIES
Type APP Name APP Frequency 118.375 MHZ
Type GND Name GND Frequency 121.7 MHZ
Type TWR Name TWR Frequency 118.1 MHZ

 AIRPORT NEAR NAVIGATION AIDS
Type NDB Name Santander Frequency 416 KHZ
Type VOR-DME Name Santander Frequency 115300 KHZ



Powered by Virtual Airlines Manager [v2.6.2]